createdAt,value
2022-08-27T00:00:49.478Z,6.93
2022-08-27T00:03:17.320Z,7.47
2022-08-27T00:05:45.156Z,7.20
2022-08-27T00:08:13.959Z,7.83
2022-08-27T00:10:41.811Z,6.77
2022-08-27T00:13:09.306Z,7.13
2022-08-27T00:15:36.401Z,7.47
2022-08-27T00:18:03.707Z,6.73
2022-08-27T00:20:30.778Z,6.50
2022-08-27T00:22:57.728Z,6.93
2022-08-27T00:25:24.775Z,6.57
2022-08-27T00:27:52.154Z,8.27
2022-08-27T00:30:22.695Z,6.80
2022-08-27T00:32:49.886Z,8.27
2022-08-27T00:35:17.742Z,7.60
2022-08-27T00:37:45.018Z,7.70
2022-08-27T00:40:16.586Z,7.00
2022-08-27T00:42:46.188Z,7.60
2022-08-27T00:45:16.281Z,7.53
2022-08-27T00:47:54.504Z,7.70
2022-08-27T00:50:37.075Z,6.47
2022-08-27T00:53:12.447Z,7.07
2022-08-27T00:56:00.085Z,7.13
2022-08-27T00:58:30.614Z,6.70
2022-08-27T01:00:59.438Z,6.90
2022-08-27T01:03:27.629Z,6.70
2022-08-27T01:05:58.301Z,6.17
2022-08-27T01:08:28.234Z,7.00
2022-08-27T01:10:58.474Z,8.00
2022-08-27T01:13:59.367Z,7.00
2022-08-27T01:16:23.962Z,7.13
2022-08-27T01:18:52.013Z,6.37
2022-08-27T01:21:24.662Z,8.03
2022-08-27T01:23:59.629Z,6.67
2022-08-27T01:26:26.821Z,8.47
2022-08-27T01:28:54.078Z,7.10
2022-08-27T01:31:21.244Z,7.47
2022-08-27T01:34:04.057Z,6.67
2022-08-27T01:36:32.083Z,6.50
2022-08-27T01:38:59.603Z,7.07
2022-08-27T01:41:27.566Z,7.67
2022-08-27T01:43:54.877Z,6.73
2022-08-27T01:46:27.701Z,6.90
2022-08-27T01:48:55.861Z,7.60
2022-08-27T01:51:23.041Z,9.03
2022-08-27T01:53:50.116Z,7.33
2022-08-27T01:56:17.308Z,7.30
2022-08-27T01:58:44.958Z,6.87
2022-08-27T02:01:14.342Z,6.80
2022-08-27T02:03:42.034Z,6.77
2022-08-27T02:06:11.779Z,7.87
2022-08-27T02:08:39.551Z,7.60
2022-08-27T02:11:08.446Z,7.43
2022-08-27T02:13:35.690Z,6.73
2022-08-27T02:16:03.090Z,7.73
2022-08-27T02:18:30.092Z,7.17
2022-08-27T02:20:57.231Z,7.13
2022-08-27T02:23:24.179Z,7.57
2022-08-27T02:25:51.304Z,7.53
2022-08-27T02:28:18.211Z,7.53
2022-08-27T02:30:45.259Z,6.70
2022-08-27T02:33:13.714Z,7.40
2022-08-27T02:35:44.410Z,7.23
2022-08-27T02:38:13.193Z,7.90
2022-08-27T02:40:40.728Z,7.27
2022-08-27T02:43:07.885Z,8.17
2022-08-27T02:45:36.672Z,7.03
2022-08-27T02:48:05.496Z,6.70
2022-08-27T02:50:32.500Z,7.23
2022-08-27T02:53:04.112Z,6.87
2022-08-27T02:55:32.350Z,6.77
2022-08-27T02:57:59.581Z,6.23
2022-08-27T03:00:29.126Z,7.37
2022-08-27T03:02:57.857Z,6.53
2022-08-27T03:05:25.531Z,8.20
2022-08-27T03:07:52.617Z,6.53
2022-08-27T03:10:21.434Z,7.83
2022-08-27T03:12:49.120Z,7.30
2022-08-27T03:15:18.325Z,6.97
2022-08-27T03:18:04.149Z,7.73
2022-08-27T03:20:31.167Z,6.80
2022-08-27T03:22:58.097Z,6.90
2022-08-27T03:25:25.277Z,7.37
2022-08-27T03:27:52.276Z,7.37
2022-08-27T03:30:22.258Z,7.87
2022-08-27T03:32:49.488Z,7.37
2022-08-27T03:35:17.727Z,7.33
2022-08-27T03:37:48.610Z,8.23
2022-08-27T03:40:16.691Z,7.20
2022-08-27T03:42:44.134Z,6.77
2022-08-27T03:45:11.602Z,7.77
2022-08-27T03:47:39.245Z,7.37
2022-08-27T03:50:11.074Z,7.63
2022-08-27T03:52:38.437Z,8.03
2022-08-27T03:55:07.614Z,7.03
2022-08-27T03:57:34.873Z,7.60
2022-08-27T04:00:02.170Z,6.90
2022-08-27T04:02:29.596Z,7.07
2022-08-27T04:04:57.867Z,7.50
2022-08-27T04:07:25.181Z,8.27
2022-08-27T04:09:52.262Z,7.93
2022-08-27T04:12:20.132Z,6.73
2022-08-27T04:14:47.267Z,8.40
2022-08-27T04:17:14.360Z,7.83
2022-08-27T04:19:41.322Z,7.60
2022-08-27T04:22:08.862Z,7.87
2022-08-27T04:24:37.407Z,7.57
2022-08-27T04:27:05.826Z,7.43
2022-08-27T04:29:33.304Z,8.07
2022-08-27T04:32:01.320Z,7.53
2022-08-27T04:34:28.504Z,7.07
2022-08-27T04:36:57.013Z,7.77
2022-08-27T04:39:26.070Z,7.43
2022-08-27T04:41:56.169Z,8.63
2022-08-27T04:44:24.122Z,8.00
2022-08-27T04:46:57.542Z,7.73
2022-08-27T04:49:26.316Z,7.43
2022-08-27T04:51:53.671Z,7.70
2022-08-27T04:54:32.173Z,6.97
2022-08-27T04:57:01.488Z,8.30
2022-08-27T04:59:29.008Z,6.77
2022-08-27T05:01:56.185Z,8.33
2022-08-27T05:04:23.211Z,7.57
2022-08-27T05:06:54.472Z,8.30
2022-08-27T05:09:24.445Z,8.03
2022-08-27T05:11:52.240Z,9.97
2022-08-27T05:14:20.013Z,8.13
2022-08-27T05:16:47.679Z,7.53
2022-08-27T05:19:15.057Z,8.73
2022-08-27T05:21:48.277Z,8.70
2022-08-27T05:24:16.903Z,7.83
2022-08-27T05:26:44.733Z,7.30
2022-08-27T05:29:11.953Z,8.33
2022-08-27T05:31:40.361Z,8.03
2022-08-27T05:34:10.215Z,8.10
2022-08-27T05:36:38.444Z,7.67
2022-08-27T05:39:15.393Z,8.70
2022-08-27T05:41:42.406Z,8.43
2022-08-27T05:46:57.601Z,7.83
2022-08-27T05:49:24.530Z,8.80
2022-08-27T05:51:51.558Z,9.23
2022-08-27T05:54:21.660Z,9.00
2022-08-27T05:56:50.127Z,8.20
2022-08-27T05:59:37.240Z,8.23
2022-08-27T06:02:06.313Z,8.93
2022-08-27T06:04:33.307Z,9.00
2022-08-27T06:07:00.379Z,8.70
2022-08-27T06:09:29.549Z,8.57
2022-08-27T06:11:58.921Z,8.00
2022-08-27T06:14:26.758Z,8.33
2022-08-27T06:16:53.729Z,7.90
2022-08-27T06:19:20.855Z,8.20
2022-08-27T06:22:00.911Z,8.50
2022-08-27T06:24:36.265Z,8.70
2022-08-27T06:27:03.709Z,8.80
2022-08-27T06:29:30.701Z,9.47
2022-08-27T06:31:57.565Z,8.77
2022-08-27T06:34:24.679Z,8.10
2022-08-27T06:36:51.655Z,9.43
2022-08-27T06:39:18.627Z,8.73
2022-08-27T06:41:45.640Z,8.17
2022-08-27T06:44:13.562Z,9.30
2022-08-27T06:46:41.489Z,8.77
2022-08-27T06:49:09.391Z,9.13
2022-08-27T06:51:38.534Z,7.53
2022-08-27T06:54:12.392Z,8.83
2022-08-27T06:56:40.567Z,9.23
2022-08-27T06:59:11.578Z,8.47
2022-08-27T07:01:42.101Z,8.17
2022-08-27T07:04:12.030Z,8.90
2022-08-27T07:06:41.170Z,8.73
2022-08-27T07:09:09.196Z,11.43
2022-08-27T07:11:36.953Z,8.43
2022-08-27T07:14:04.900Z,8.13
2022-08-27T07:16:31.864Z,8.03
2022-08-27T07:19:04.101Z,8.73
2022-08-27T07:21:33.392Z,8.47
2022-08-27T07:24:04.977Z,8.33
2022-08-27T07:26:35.047Z,8.67
2022-08-27T07:29:02.786Z,8.07
2022-08-27T07:31:29.791Z,8.50
2022-08-27T07:33:59.033Z,7.20
2022-08-27T07:36:26.065Z,8.03
2022-08-27T07:39:00.118Z,8.40
2022-08-27T07:41:32.620Z,8.20
2022-08-27T07:44:19.062Z,9.20
2022-08-27T07:46:49.116Z,8.43
2022-08-27T07:49:20.331Z,7.83
2022-08-27T07:51:47.507Z,8.70
2022-08-27T07:54:15.098Z,8.07
2022-08-27T07:56:44.328Z,8.03
2022-08-27T07:59:26.246Z,8.00
2022-08-27T08:01:55.174Z,9.47
2022-08-27T08:04:22.917Z,8.00
2022-08-27T08:06:51.113Z,9.27
2022-08-27T08:09:18.394Z,8.80
2022-08-27T08:11:45.429Z,9.77
2022-08-27T08:14:12.506Z,9.33
2022-08-27T08:16:40.253Z,10.60
2022-08-27T08:19:09.312Z,9.17
2022-08-27T08:21:36.722Z,9.17
2022-08-27T08:24:04.249Z,10.13
2022-08-27T08:26:31.637Z,8.87
2022-08-27T08:29:00.559Z,8.20
2022-08-27T08:31:27.698Z,9.03
2022-08-27T08:33:55.154Z,8.23
2022-08-27T08:36:22.424Z,7.43
2022-08-27T08:38:51.028Z,7.13
2022-08-27T08:41:27.310Z,7.70
2022-08-27T08:44:03.510Z,7.80
2022-08-27T08:46:49.381Z,7.77
2022-08-27T08:49:51.082Z,8.53
2022-08-27T08:52:50.750Z,7.90
2022-08-27T08:55:31.297Z,8.10
2022-08-27T08:58:26.917Z,7.60
2022-08-27T09:01:00.088Z,9.37
2022-08-27T09:03:29.123Z,8.37
2022-08-27T09:06:05.473Z,8.40
2022-08-27T09:08:42.345Z,7.97
2022-08-27T09:11:35.574Z,8.73
2022-08-27T09:14:17.033Z,8.37
2022-08-27T09:16:44.036Z,7.87
2022-08-27T09:19:13.039Z,8.23
2022-08-27T09:21:43.479Z,8.43
2022-08-27T09:24:54.953Z,8.30
2022-08-27T09:27:23.557Z,8.67
2022-08-27T09:29:54.336Z,8.90
2022-08-27T09:32:27.524Z,8.43
2022-08-27T09:35:04.037Z,8.00
2022-08-27T09:37:41.934Z,8.73
2022-08-27T09:40:22.653Z,8.27
2022-08-27T09:42:59.037Z,8.57
2022-08-27T09:45:28.733Z,8.40
2022-08-27T09:47:55.428Z,8.73
2022-08-27T10:09:38.437Z,8.93
2022-08-27T10:12:38.185Z,10.13
2022-08-27T10:15:06.539Z,8.47
2022-08-27T10:17:39.664Z,9.00
2022-08-27T10:20:30.379Z,8.60
2022-08-27T10:23:11.961Z,8.35
2022-08-27T10:26:08.088Z,8.80
2022-08-27T10:29:02.910Z,7.97
2022-08-27T10:31:48.007Z,8.52
2022-08-27T10:34:51.111Z,8.57
2022-08-27T10:37:40.470Z,7.65
2022-08-27T10:40:24.199Z,8.73
2022-08-27T10:43:17.827Z,8.07
2022-08-27T10:45:59.477Z,8.77
2022-08-27T10:48:40.162Z,8.05
2022-08-27T10:51:26.457Z,8.40
2022-08-27T10:54:01.093Z,7.95
2022-08-27T10:56:46.192Z,8.48
2022-08-27T10:59:35.624Z,6.72
2022-08-27T11:02:27.406Z,7.22
2022-08-27T11:05:00.496Z,7.03
2022-08-27T11:07:31.952Z,7.45
2022-08-27T11:10:14.547Z,7.65
2022-08-27T11:12:46.867Z,7.30
2022-08-27T11:15:19.570Z,8.18
2022-08-27T11:18:26.070Z,11.27
2022-08-27T11:21:14.783Z,8.48
2022-08-27T11:23:50.174Z,7.90
2022-08-27T11:26:17.468Z,8.93
2022-08-27T11:28:48.212Z,8.38
2022-08-27T11:31:33.663Z,7.47
2022-08-27T11:34:16.277Z,7.32
2022-08-27T11:37:03.610Z,5.78
2022-08-27T11:39:52.228Z,7.88
2022-08-27T11:42:44.575Z,7.45
2022-08-27T11:45:19.157Z,5.68
2022-08-27T11:47:58.741Z,7.13
2022-08-27T11:50:28.640Z,7.13
2022-08-27T11:53:05.877Z,7.55
2022-08-27T11:55:38.474Z,6.60
2022-08-27T11:58:17.917Z,6.85
2022-08-27T12:00:46.154Z,5.88
2022-08-27T12:03:22.320Z,6.60
2022-08-27T12:05:55.422Z,7.38
2022-08-27T12:08:22.506Z,6.50
2022-08-27T12:11:11.810Z,6.20
2022-08-27T12:13:41.445Z,6.55
2022-08-27T12:16:16.594Z,5.72
2022-08-27T12:19:11.352Z,7.10
2022-08-27T12:21:57.547Z,6.03
2022-08-27T12:24:41.397Z,6.45
2022-08-27T12:27:29.458Z,6.25
2022-08-27T12:30:01.671Z,5.47
2022-08-27T12:32:40.217Z,6.25
2022-08-27T12:35:17.867Z,6.47
2022-08-27T12:37:50.295Z,5.75
2022-08-27T12:40:26.270Z,6.75
2022-08-27T12:43:07.401Z,6.20
2022-08-27T12:45:41.772Z,5.40
2022-08-27T12:48:10.181Z,6.25
2022-08-27T12:50:38.522Z,6.00
2022-08-27T12:53:50.811Z,6.43
2022-08-27T12:56:55.387Z,5.70
2022-08-27T12:59:22.311Z,6.85
2022-08-27T13:02:19.989Z,6.45
2022-08-27T13:04:48.436Z,6.15
2022-08-27T13:07:40.560Z,5.40
2022-08-27T13:10:10.757Z,5.80
2022-08-27T13:12:38.460Z,5.57
2022-08-27T13:15:10.877Z,5.63
2022-08-27T13:17:45.882Z,5.78
2022-08-27T13:20:24.679Z,6.20
2022-08-27T13:22:53.364Z,5.85
2022-08-27T13:25:34.793Z,6.90
2022-08-27T13:28:10.432Z,5.80
2022-08-27T13:30:44.582Z,4.95
2022-08-27T13:33:18.742Z,6.18
2022-08-27T13:35:47.580Z,5.47
2022-08-27T13:38:16.275Z,5.93
2022-08-27T13:40:58.256Z,5.85
2022-08-27T13:43:42.686Z,5.57
2022-08-27T13:46:13.667Z,5.93
2022-08-27T13:48:43.140Z,5.85
2022-08-27T13:51:12.280Z,6.07
2022-08-27T13:54:05.397Z,6.10
2022-08-27T13:56:39.681Z,5.63
2022-08-27T13:59:19.273Z,6.13
2022-08-27T14:02:10.902Z,5.57
2022-08-27T14:04:39.512Z,5.50
2022-08-27T14:07:27.042Z,6.75
2022-08-27T14:09:59.525Z,6.07
2022-08-27T14:12:28.875Z,5.47
2022-08-27T14:15:20.257Z,6.20
2022-08-27T14:17:47.666Z,6.40
2022-08-27T14:20:16.321Z,6.80
2022-08-27T14:22:44.923Z,6.78
2022-08-27T14:25:13.218Z,6.65
2022-08-27T14:27:41.988Z,6.82
2022-08-27T14:30:29.088Z,7.07
2022-08-27T14:33:01.080Z,7.43
2022-08-27T14:35:33.791Z,7.03
2022-08-27T14:38:14.691Z,5.65
2022-08-27T14:40:43.450Z,7.10
2022-08-27T14:43:10.586Z,5.68
2022-08-27T14:45:39.141Z,6.30
2022-08-27T14:48:18.257Z,6.75
2022-08-27T14:50:46.541Z,6.03
2022-08-27T14:53:13.608Z,6.45
2022-08-27T14:55:40.678Z,6.65
2022-08-27T14:58:07.669Z,6.10
2022-08-27T15:00:36.445Z,6.80
2022-08-27T15:03:03.463Z,6.90
2022-08-27T15:05:30.457Z,6.45
2022-08-27T15:07:58.781Z,6.07
2022-08-27T15:10:25.830Z,6.38
2022-08-27T15:12:54.622Z,7.30
2022-08-27T15:15:21.814Z,7.07
2022-08-27T15:17:48.999Z,7.40
2022-08-27T15:20:20.077Z,6.70
2022-08-27T15:22:48.558Z,6.78
2022-08-27T15:25:16.084Z,6.13
2022-08-27T15:27:43.368Z,5.97
2022-08-27T15:30:13.730Z,6.75
2022-08-27T15:32:43.096Z,6.35
2022-08-27T15:35:17.820Z,6.38
2022-08-27T15:37:45.766Z,6.55
2022-08-27T15:40:14.785Z,6.60
2022-08-27T15:42:43.237Z,6.25
2022-08-27T15:45:11.868Z,8.57
2022-08-27T15:47:38.906Z,6.97
2022-08-27T15:50:07.284Z,10.27
2022-08-27T15:52:40.620Z,7.90
2022-08-27T15:55:20.949Z,7.68
2022-08-27T15:57:48.218Z,7.53
2022-08-27T16:00:16.922Z,8.45
2022-08-27T16:02:45.438Z,7.72
2022-08-27T16:05:13.920Z,7.95
2022-08-27T16:07:41.126Z,9.40
2022-08-27T16:10:09.777Z,8.02
2022-08-27T16:12:37.020Z,7.82
2022-08-27T16:15:05.887Z,7.63
2022-08-27T16:17:33.326Z,8.85
2022-08-27T16:20:00.480Z,9.30
2022-08-27T16:22:28.537Z,9.07
2022-08-27T16:24:55.546Z,7.38
2022-08-27T16:27:22.585Z,7.32
2022-08-27T16:29:49.887Z,8.77
2022-08-27T16:32:19.031Z,8.60
2022-08-27T16:34:47.566Z,7.57
2022-08-27T16:37:26.328Z,9.43
2022-08-27T16:39:53.625Z,9.80
2022-08-27T16:42:21.171Z,9.35
2022-08-27T16:44:48.629Z,8.55
2022-08-27T16:47:16.897Z,9.23
2022-08-27T16:50:02.318Z,9.32
2022-08-27T16:52:30.144Z,10.48
2022-08-27T16:54:57.178Z,8.93
2022-08-27T16:57:24.167Z,9.10
2022-08-27T16:59:51.382Z,8.77
2022-08-27T17:02:30.315Z,9.15
2022-08-27T17:05:12.401Z,10.00
2022-08-27T17:07:48.322Z,8.63
2022-08-27T17:10:18.438Z,9.73
2022-08-27T17:12:47.289Z,9.35
2022-08-27T17:15:18.375Z,8.43
2022-08-27T17:17:45.729Z,9.07
2022-08-27T17:20:15.291Z,8.88
2022-08-27T17:22:43.605Z,8.75
2022-08-27T17:25:10.871Z,9.15
2022-08-27T17:27:37.796Z,8.57
2022-08-27T17:30:06.124Z,9.68
2022-08-27T17:32:38.416Z,8.82
2022-08-27T17:35:07.240Z,8.10
2022-08-27T17:37:34.821Z,7.35
2022-08-27T17:40:02.186Z,7.70
2022-08-27T17:42:31.140Z,8.45
2022-08-27T17:44:59.093Z,8.48
2022-08-27T17:47:26.949Z,9.25
2022-08-27T17:49:54.458Z,8.57
2022-08-27T17:52:22.423Z,8.75
2022-08-27T17:54:52.080Z,8.85
2022-08-27T17:57:24.097Z,8.32
2022-08-27T17:59:51.515Z,8.63
2022-08-27T18:02:25.974Z,8.82
2022-08-27T18:04:53.034Z,8.68
2022-08-27T18:07:20.494Z,9.45
2022-08-27T18:09:48.740Z,8.90
2022-08-27T18:12:19.539Z,9.60
2022-08-27T18:14:53.070Z,10.10
2022-08-27T18:17:19.999Z,10.75
2022-08-27T18:19:46.983Z,9.25
2022-08-27T18:22:18.244Z,8.85
2022-08-27T18:24:45.173Z,8.85
2022-08-27T18:27:12.161Z,9.45
2022-08-27T18:29:39.219Z,9.15
2022-08-27T18:32:06.273Z,7.70
2022-08-27T18:34:33.212Z,13.73
2022-08-27T18:37:00.116Z,8.93
2022-08-27T18:39:27.818Z,9.47
2022-08-27T18:41:55.420Z,9.97
2022-08-27T18:44:22.611Z,10.25
2022-08-27T18:46:49.772Z,12.52
2022-08-27T18:49:16.729Z,10.23
2022-08-27T18:51:48.225Z,9.45
2022-08-27T18:54:19.267Z,9.88
2022-08-27T18:56:46.291Z,10.88
2022-08-27T18:59:13.869Z,9.70
2022-08-27T19:01:41.204Z,10.40
2022-08-27T19:04:09.917Z,11.25
2022-08-27T19:06:37.529Z,10.23
2022-08-27T19:09:05.117Z,10.50
2022-08-27T19:11:32.256Z,12.00
2022-08-27T19:13:59.114Z,11.13
2022-08-27T19:16:43.251Z,10.30
2022-08-27T19:19:12.706Z,9.07
2022-08-27T19:21:39.651Z,9.93
2022-08-27T19:24:07.122Z,9.82
2022-08-27T19:26:34.721Z,9.93
2022-08-27T19:29:04.340Z,9.57
2022-08-27T19:31:33.685Z,9.73
2022-08-27T19:34:00.606Z,9.15
2022-08-27T19:36:28.149Z,9.70
2022-08-27T19:38:55.577Z,11.10
2022-08-27T19:41:27.636Z,10.47
2022-08-27T19:43:55.004Z,9.67
2022-08-27T19:46:24.198Z,9.63
2022-08-27T19:48:51.649Z,9.80
2022-08-27T19:51:19.408Z,10.80
2022-08-27T19:53:46.434Z,10.07
2022-08-27T19:56:14.122Z,9.93
2022-08-27T19:58:42.063Z,9.90
2022-08-27T20:01:09.352Z,10.30
2022-08-27T20:03:36.427Z,11.10
2022-08-27T20:06:04.724Z,9.37
2022-08-27T20:08:31.974Z,10.43
2022-08-27T20:10:58.930Z,9.50
2022-08-27T20:13:28.896Z,9.80
2022-08-27T20:15:59.926Z,9.87
2022-08-27T20:18:26.922Z,10.07
2022-08-27T20:20:54.093Z,10.63
2022-08-27T20:23:21.286Z,9.93
2022-08-27T20:25:48.326Z,9.83
2022-08-27T20:28:38.377Z,9.50
2022-08-27T20:31:02.463Z,10.53
2022-08-27T20:33:29.468Z,10.33
2022-08-27T20:35:58.841Z,10.03
2022-08-27T20:38:25.988Z,10.20
2022-08-27T20:40:53.275Z,11.43
2022-08-27T20:43:20.190Z,11.07
2022-08-27T20:45:47.491Z,10.97
2022-08-27T20:48:14.830Z,10.97
2022-08-27T20:50:41.792Z,11.97
2022-08-27T20:53:09.244Z,13.03
2022-08-27T20:55:36.128Z,9.87
2022-08-27T20:58:21.620Z,11.87
2022-08-27T21:00:52.415Z,10.83
2022-08-27T21:03:20.549Z,11.67
2022-08-27T21:05:48.791Z,10.83
2022-08-27T21:08:21.928Z,11.03
2022-08-27T21:10:54.182Z,11.33
2022-08-27T21:13:21.911Z,11.53
2022-08-27T21:15:50.221Z,17.13
2022-08-27T21:18:22.045Z,12.27
2022-08-27T21:20:57.394Z,11.33
2022-08-27T21:23:25.498Z,10.93
2022-08-27T21:25:52.383Z,11.10
2022-08-27T21:28:19.239Z,10.53
2022-08-27T21:30:46.329Z,9.67
2022-08-27T21:33:13.261Z,12.00
2022-08-27T21:35:40.207Z,11.73
2022-08-27T21:38:07.343Z,10.80
2022-08-27T21:40:34.368Z,10.87
2022-08-27T21:43:02.032Z,8.33
2022-08-27T21:45:29.292Z,6.47
2022-08-27T21:47:56.233Z,6.83
2022-08-27T21:50:24.356Z,6.63
2022-08-27T21:52:51.908Z,6.00
2022-08-27T21:55:19.315Z,6.47
2022-08-27T21:57:46.363Z,5.57
2022-08-27T22:00:16.866Z,5.70
2022-08-27T22:02:43.788Z,5.83
2022-08-27T22:05:10.755Z,7.63
2022-08-27T22:07:37.786Z,4.97
2022-08-27T22:10:06.231Z,5.80
2022-08-27T22:12:33.648Z,5.30
2022-08-27T22:15:00.853Z,4.73
2022-08-27T22:17:27.779Z,3.50
2022-08-27T22:19:54.711Z,3.57
2022-08-27T22:22:21.746Z,2.80
2022-08-27T22:24:48.820Z,3.57
2022-08-27T22:27:15.866Z,3.43
2022-08-27T22:29:42.877Z,3.90
2022-08-27T22:32:09.796Z,2.80
2022-08-27T22:34:36.776Z,2.90
2022-08-27T22:37:04.617Z,3.37
2022-08-27T22:39:31.699Z,2.80
2022-08-27T22:41:58.737Z,3.00
2022-08-27T22:44:29.480Z,2.90
2022-08-27T22:46:57.766Z,3.30
2022-08-27T22:49:25.084Z,2.80
2022-08-27T22:51:52.823Z,2.63
2022-08-27T22:54:19.781Z,3.10
2022-08-27T22:56:46.700Z,3.03
2022-08-27T22:59:14.010Z,2.93
2022-08-27T23:01:40.930Z,2.57
2022-08-27T23:04:07.916Z,2.90
2022-08-27T23:06:35.615Z,2.43
2022-08-27T23:09:05.040Z,2.27
2022-08-27T23:11:31.970Z,2.87
2022-08-27T23:14:00.105Z,2.63
2022-08-27T23:16:28.031Z,2.57
2022-08-27T23:18:54.968Z,2.20
2022-08-27T23:21:22.022Z,2.07
2022-08-27T23:23:49.131Z,2.70
2022-08-27T23:26:34.662Z,2.70
2022-08-27T23:29:01.616Z,2.20
2022-08-27T23:31:28.505Z,1.77
2022-08-27T23:33:56.473Z,1.97
2022-08-27T23:36:23.793Z,2.57
2022-08-27T23:38:51.024Z,1.50
2022-08-27T23:41:18.102Z,2.27
2022-08-27T23:43:45.624Z,2.50
2022-08-27T23:46:13.328Z,1.90
2022-08-27T23:48:40.593Z,2.30
2022-08-27T23:51:09.369Z,2.73
2022-08-27T23:53:38.044Z,1.97
2022-08-27T23:56:05.850Z,2.07
2022-08-27T23:58:32.872Z,1.97
